Time;durP1;ratioP1;P1;durP2;ratioP2;P2;SDS_P1;SDS_P2;PMS_P1;PMS_P2;Temp;Humidity;BMP_temperature;BMP_pressure;BME280_temperature;BME280_humidity;BME280_pressure;Samples;Min_cycle;Max_cycle;Signal;HPM_P1;HPM_P2
2022/11/02 00:27:46;;;;;;;;;;;;;;;12.15;84.19;101414.53;5931180;22;19921;-89
2022/11/02 00:30:49;;;;;;;;;;;;;;;12.16;83.88;101418.94;5010671;28;19932;-92
2022/11/02 00:33:34;;;;;;;;;;;;;;;12.16;83.71;101408.16;5028917;28;19925;-91
2022/11/02 00:36:36;;;;;;;;;;;;;;;12.09;83.52;101412.47;5025683;28;20298;-95
2022/11/02 00:39:34;;;;;;;;;;;;;;;11.93;84.11;101411.28;5045107;28;19952;-96
2022/11/02 00:45:50;;;;;;;;;;;;;;;11.86;83.95;101412.88;5074846;28;19923;-93
2022/11/02 00:48:38;;;;;;;;;;;;;;;11.96;83.15;101404.75;5044104;28;19913;-92
2022/11/02 00:54:21;;;;;;;;;;;;;;;11.78;83.09;101400.16;5279575;22;19925;-95
2022/11/02 01:07:14;;;;;;;;;;;;;;;11.81;82.74;101390.91;5021285;28;19928;-96
2022/11/02 01:10:34;;;;;;;;;;;;;;;11.78;82.39;101384.00;5026638;28;19910;-94
2022/11/02 01:13:19;;;;;;;;;;;;;;;11.57;83.06;101388.78;4999540;28;19921;-96
2022/11/02 01:21:57;;;;;;;;;;;;;;;11.61;82.78;101377.56;1671996;23;20213;-91
2022/11/02 02:12:35;;;;;;;;;;;;;;;10.91;87.43;101330.53;5051640;28;19989;-95
2022/11/02 03:02:03;;;;;;;;;;;;;;;10.75;88.18;101332.03;5649334;23;19957;-94
2022/11/02 03:48:00;;;;;;;;;;;;;;;10.19;86.77;101286.25;5107110;22;19925;-94
2022/11/02 03:54:16;;;;;;;;;;;;;;;10.05;86.36;101283.00;5061177;28;19923;-96
2022/11/02 04:25:39;;;;;;;;;;;;;;;9.39;87.80;101267.56;4954614;28;19973;-95
2022/11/02 04:28:28;;;;;;;;;;;;;;;9.27;88.35;101260.59;4952081;29;19923;-94
2022/11/02 04:30:58;;;;;;;;;;;;;;;9.18;89.00;101267.66;4929415;29;20005;-94
2022/11/02 04:33:33;;;;;;;;;;;;;;;9.22;88.99;101257.50;4941043;29;19919;-94
2022/11/02 04:38:44;;;;;;;;;;;;;;;9.16;89.01;101261.59;5026088;28;19932;-95
2022/11/02 05:04:09;;;;;;;;;;;;;;;9.28;86.86;101271.22;4582819;22;19947;-93
2022/11/02 05:43:58;;;;;;;;;;;;;;;10.04;85.58;101296.56;5062159;28;19932;-94
2022/11/02 05:46:24;;;;;;;;;;;;;;;10.42;83.96;101300.25;5033516;28;19920;-95
2022/11/02 06:01:45;;;;;;;;;;;;;;;15.19;65.48;101299.22;5020621;28;19979;-95
2022/11/02 06:04:40;;;;;;;;;;;;;;;16.11;61.15;101290.38;4992016;28;19976;-95
2022/11/02 06:07:05;;;;;;;;;;;;;;;16.76;58.84;101290.75;4999089;28;19977;-91
2022/11/02 06:09:36;;;;;;;;;;;;;;;17.95;55.94;101283.28;5007947;28;20020;-95
2022/11/02 06:12:11;;;;;;;;;;;;;;;18.43;54.15;101285.41;4991493;28;19965;-94
2022/11/02 06:14:47;;;;;;;;;;;;;;;18.79;52.10;101289.88;5000920;28;19919;-94
2022/11/02 06:17:34;;;;;;;;;;;;;;;19.19;50.53;101289.03;5017440;28;19928;-94
2022/11/02 06:20:03;;;;;;;;;;;;;;;20.52;48.02;101287.66;5016370;28;19913;-93
2022/11/02 06:22:34;;;;;;;;;;;;;;;21.51;44.54;101286.56;4990047;28;19972;-96
2022/11/02 06:25:23;;;;;;;;;;;;;;;22.12;43.07;101291.47;5467380;23;19959;-95
2022/11/02 06:30:30;;;;;;;;;;;;;;;23.38;39.47;101289.38;5027068;22;19997;-88
2022/11/02 06:32:56;;;;;;;;;;;;;;;24.04;37.82;101296.94;5009953;28;19961;-90
2022/11/02 06:35:34;;;;;;;;;;;;;;;24.03;37.17;101293.34;5015056;28;20023;-93
2022/11/02 06:41:05;;;;;;;;;;;;;;;25.70;34.33;101291.06;5176686;23;20049;-93
2022/11/02 06:46:06;;;;;;;;;;;;;;;26.79;33.31;101291.84;2991178;22;19994;-90
2022/11/02 06:48:54;;;;;;;;;;;;;;;27.08;31.78;101292.50;5033892;28;19984;-93
2022/11/02 06:51:22;;;;;;;;;;;;;;;27.65;30.77;101294.88;5032521;28;19921;-92
2022/11/02 06:54:15;;;;;;;;;;;;;;;28.17;30.55;101294.31;5030218;28;19921;-93
2022/11/02 06:59:45;;;;;;;;;;;;;;;28.23;29.34;101288.81;5046609;28;19924;-91
2022/11/02 07:02:27;;;;;;;;;;;;;;;;;;;;;
2022/11/02 07:04:57;;;;;;;;;;;;;;;29.79;28.14;101289.13;4994286;28;20074;-90
2022/11/02 07:07:49;;;;;;;;;;;;;;;;;;;;;
2022/11/02 07:10:37;;;;;;;;;;;;;;;30.43;26.97;101278.63;5042025;28;20012;-94
2022/11/02 07:13:15;;;;;;;;;;;;;;;30.94;26.29;101275.75;5036520;28;19924;-95
2022/11/02 07:18:28;;;;;;;;;;;;;;;30.59;26.13;101280.25;5040366;28;19940;-91
2022/11/02 07:46:39;;;;;;;;;;;;;;;31.05;26.22;101257.13;5037037;28;19997;-95
2022/11/02 07:49:37;;;;;;;;;;;;;;;31.34;25.53;101251.69;5039365;28;20062;-93
2022/11/02 07:52:05;;;;;;;;;;;;;;;31.96;24.95;101246.63;5033281;28;19944;-93
2022/11/02 07:54:40;;;;;;;;;;;;;;;32.44;24.66;101255.06;5040588;28;20417;-96
2022/11/02 07:57:44;;;;;;;;;;;;;;;;;;;;;
2022/11/02 08:00:20;;;;;;;;;;;;;;;33.56;22.97;101238.94;4992981;28;19922;-92
2022/11/02 08:02:50;;;;;;;;;;;;;;;33.93;22.63;101233.66;4981393;28;20052;-93
2022/11/02 08:05:16;;;;;;;;;;;;;;;33.64;22.33;101229.91;5026862;28;19922;-92
2022/11/02 08:07:46;;;;;;;;;;;;;;;33.96;22.27;101231.06;5036018;28;19976;-91
2022/11/02 08:10:21;;;;;;;;;;;;;;;34.76;21.39;101231.03;5029086;28;20395;-89
2022/11/02 08:13:05;;;;;;;;;;;;;;;34.91;21.40;101221.50;5027975;28;19927;-95
2022/11/02 08:15:33;;;;;;;;;;;;;;;34.86;21.46;101219.66;5029068;28;19933;-90
2022/11/02 08:18:09;;;;;;;;;;;;;;;35.41;20.68;101219.56;5040377;28;19973;-90
2022/11/02 08:23:14;;;;;;;;;;;;;;;35.62;20.01;101213.53;5119827;23;20007;-96
2022/11/02 08:25:47;;;;;;;;;;;;;;;36.40;19.45;101216.00;5060721;28;19927;-94
2022/11/02 08:30:58;;;;;;;;;;;;;;;37.02;18.84;101196.28;5066006;28;19944;-94
2022/11/02 08:33:23;;;;;;;;;;;;;;;37.33;18.56;101192.56;5043779;28;19921;-86
2022/11/02 08:36:07;;;;;;;;;;;;;;;37.57;18.72;101192.91;5043177;28;19932;-96
2022/11/02 08:38:34;;;;;;;;;;;;;;;38.43;17.75;101191.03;5062475;28;20388;-92
2022/11/02 08:41:01;;;;;;;;;;;;;;;38.85;16.99;101187.53;5059822;28;19921;-94
2022/11/02 08:43:26;;;;;;;;;;;;;;;38.20;17.22;101192.47;5041241;28;19920;-93
2022/11/02 08:46:02;;;;;;;;;;;;;;;38.95;16.65;101184.34;5029005;28;20434;-95
2022/11/02 08:48:28;;;;;;;;;;;;;;;38.14;17.14;101185.38;5046252;28;19921;-93
2022/11/02 08:51:04;;;;;;;;;;;;;;;39.18;16.67;101182.03;5042937;28;19951;-94
2022/11/02 08:53:31;;;;;;;;;;;;;;;39.15;16.33;101177.09;5048327;28;19957;-94
2022/11/02 08:56:17;;;;;;;;;;;;;;;39.26;16.13;101178.31;5044431;28;19920;-93
2022/11/02 08:58:52;;;;;;;;;;;;;;;38.37;16.85;101174.72;5037490;28;19931;-93
2022/11/02 09:01:18;;;;;;;;;;;;;;;38.98;16.46;101177.22;5037780;28;20292;-89
2022/11/02 09:03:46;;;;;;;;;;;;;;;38.80;16.51;101174.50;5040960;28;19991;-94
2022/11/02 09:06:14;;;;;;;;;;;;;;;39.59;15.81;101171.09;5043616;28;20367;-88
2022/11/02 09:11:19;;;;;;;;;;;;;;;40.57;15.50;101162.06;5539040;22;19931;-90
2022/11/02 09:44:50;;;;;;;;;;;;;;;40.30;15.11;101096.81;5832257;23;19934;-88
2022/11/02 09:47:20;;;;;;;;;;;;;;;40.18;14.65;101100.44;5028566;28;20010;-94
2022/11/02 09:49:45;;;;;;;;;;;;;;;40.71;14.31;101092.88;5035593;28;19931;-88
2022/11/02 09:52:12;;;;;;;;;;;;;;;41.22;14.75;101083.94;5010107;28;19961;-91
2022/11/02 09:54:43;;;;;;;;;;;;;;;41.35;14.35;101079.03;5022492;28;20002;-90
2022/11/02 09:57:37;;;;;;;;;;;;;;;42.21;13.18;101074.84;5026693;28;19929;-93
2022/11/02 10:00:02;;;;;;;;;;;;;;;42.64;13.15;101071.03;5017379;28;19917;-94
2022/11/02 10:02:49;;;;;;;;;;;;;;;41.73;13.42;101060.75;5031153;28;19975;-96
2022/11/02 10:05:57;;;;;;;;;;;;;;;41.86;13.83;101064.28;5046164;28;19952;-96
2022/11/02 10:09:24;;;;;;;;;;;;;;;41.70;13.64;101061.47;5497906;23;20824;-96
2022/11/02 10:12:30;;;;;;;;;;;;;;;42.12;13.14;101055.28;5000450;28;19932;-95
2022/11/02 10:15:19;;;;;;;;;;;;;;;42.30;12.72;101038.75;4981002;28;20334;-95
2022/11/02 10:18:05;;;;;;;;;;;;;;;42.04;12.97;101042.19;4996318;28;20353;-96
2022/11/02 10:23:57;;;;;;;;;;;;;;;41.83;12.57;101036.78;5072383;23;19968;-96
2022/11/02 10:26:26;;;;;;;;;;;;;;;42.17;12.87;101036.06;5022538;28;20413;-96
2022/11/02 10:29:03;;;;;;;;;;;;;;;41.26;13.03;101027.66;5005896;28;20358;-95
2022/11/02 10:31:30;;;;;;;;;;;;;;;41.58;13.18;101020.03;4955972;28;19917;-94
2022/11/02 10:33:59;;;;;;;;;;;;;;;40.79;14.13;101017.84;4989567;28;20288;-96
2022/11/02 10:45:01;;;;;;;;;;;;;;;41.14;13.16;100997.53;5052763;28;19925;-92
2022/11/02 10:56:32;;;;;;;;;;;;;;;38.93;15.07;100984.34;5041119;28;19932;-90
2022/11/02 10:58:59;;;;;;;;;;;;;;;39.18;14.88;100990.03;5024838;28;19969;-94
2022/11/02 11:06:44;;;;;;;;;;;;;;;38.29;15.57;100974.25;5119050;22;19925;-95
2022/11/02 11:09:21;;;;;;;;;;;;;;;37.43;16.31;100979.13;5030476;28;19929;-92
2022/11/02 11:12:06;;;;;;;;;;;;;;;38.16;15.81;100975.34;5033381;28;19920;-93
2022/11/02 11:14:51;;;;;;;;;;;;;;;38.89;15.30;100971.28;5030294;28;19967;-94
2022/11/02 11:17:20;;;;;;;;;;;;;;;39.49;14.89;100972.66;5044219;28;20338;-94
2022/11/02 11:19:51;;;;;;;;;;;;;;;38.49;15.28;100964.22;5014275;28;20409;-96
2022/11/02 11:22:35;;;;;;;;;;;;;;;38.79;15.21;100962.13;5019684;28;19917;-92
2022/11/02 11:25:03;;;;;;;;;;;;;;;38.93;15.21;100955.41;5055578;28;19956;-94
2022/11/02 11:27:30;;;;;;;;;;;;;;;38.75;15.33;100951.91;5056121;28;20463;-95
2022/11/02 11:29:58;;;;;;;;;;;;;;;37.73;16.16;100949.16;5056780;28;19917;-96
2022/11/02 11:32:39;;;;;;;;;;;;;;;37.89;16.40;100943.78;5017364;28;19952;-95
2022/11/02 11:35:06;;;;;;;;;;;;;;;38.04;16.23;100947.19;5048933;28;20312;-93
2022/11/02 11:37:31;;;;;;;;;;;;;;;38.25;15.96;100944.41;5014123;28;20023;-93
2022/11/02 11:40:22;;;;;;;;;;;;;;;38.17;16.41;100940.50;5027896;28;20394;-95
2022/11/02 11:42:48;;;;;;;;;;;;;;;38.36;16.41;100940.84;5027518;28;19920;-95
2022/11/02 11:45:26;;;;;;;;;;;;;;;37.24;16.74;100937.47;5046958;28;19940;-92
2022/11/02 11:48:17;;;;;;;;;;;;;;;36.91;17.04;100929.63;5060625;28;19957;-95
2022/11/02 11:50:57;;;;;;;;;;;;;;;35.09;18.75;100924.41;5021762;28;20028;-92
2022/11/02 11:53:27;;;;;;;;;;;;;;;34.82;19.49;100923.44;5048493;28;19924;-94
2022/11/02 11:55:54;;;;;;;;;;;;;;;34.37;19.71;100916.97;5053106;28;19996;-91
2022/11/02 11:58:37;;;;;;;;;;;;;;;33.15;20.70;100915.56;5041696;28;19931;-93
2022/11/02 12:01:07;;;;;;;;;;;;;;;32.88;20.65;100921.88;5023267;28;19913;-95
2022/11/02 12:03:33;;;;;;;;;;;;;;;32.44;21.27;100914.78;5036785;28;19928;-95
2022/11/02 12:06:12;;;;;;;;;;;;;;;31.68;22.01;100898.84;5029741;28;19928;-94
2022/11/02 12:08:48;;;;;;;;;;;;;;;31.42;22.52;100908.59;5041437;28;19932;-95
2022/11/02 12:11:38;;;;;;;;;;;;;;;30.99;22.73;100909.28;5041113;28;19917;-95
2022/11/02 12:14:17;;;;;;;;;;;;;;;30.57;23.51;100898.78;5031462;28;19921;-95
2022/11/02 12:17:19;;;;;;;;;;;;;;;30.24;23.80;100901.22;5002054;28;20009;-95
2022/11/02 12:20:07;;;;;;;;;;;;;;;30.18;23.72;100902.34;5011310;28;19977;-94
2022/11/02 12:22:53;;;;;;;;;;;;;;;30.11;24.30;100901.84;5012230;28;20033;-96
2022/11/02 12:25:38;;;;;;;;;;;;;;;30.14;23.80;100901.28;5004963;28;19922;-95
2022/11/02 12:28:18;;;;;;;;;;;;;;;30.16;23.79;100905.41;4996219;28;19929;-95
2022/11/02 12:31:03;;;;;;;;;;;;;;;30.17;23.67;100898.75;5004423;28;19930;-94
2022/11/02 12:33:57;;;;;;;;;;;;;;;30.34;23.81;100895.63;5015263;28;19926;-94
2022/11/02 12:36:29;;;;;;;;;;;;;;;30.33;23.32;100887.59;4992151;28;19914;-96
2022/11/02 12:39:10;;;;;;;;;;;;;;;29.79;24.03;100892.03;4985041;28;19922;-94
2022/11/02 12:41:38;;;;;;;;;;;;;;;30.07;24.14;100896.06;4982918;28;19974;-96
2022/11/02 12:44:34;;;;;;;;;;;;;;;30.17;23.54;100889.59;4986049;28;19918;-96
2022/11/02 12:47:16;;;;;;;;;;;;;;;30.31;23.70;100885.09;4974065;28;19940;-94
2022/11/02 12:50:00;;;;;;;;;;;;;;;30.27;23.74;100878.47;4955439;28;19918;-94
2022/11/02 12:55:56;;;;;;;;;;;;;;;30.03;23.61;100867.22;5112441;22;19925;-96
2022/11/02 12:59:00;;;;;;;;;;;;;;;29.84;23.84;100870.66;5046525;28;19923;-95
2022/11/02 13:02:01;;;;;;;;;;;;;;;29.96;23.66;100866.72;5051241;28;20411;-96
2022/11/02 13:05:05;;;;;;;;;;;;;;;30.01;23.75;100869.47;5044944;28;19921;-96
2022/11/02 13:10:27;;;;;;;;;;;;;;;29.54;22.83;100871.59;5811019;23;19936;-95
2022/11/02 13:12:59;;;;;;;;;;;;;;;29.41;22.05;100872.22;5055534;28;19931;-94
2022/11/02 13:15:27;;;;;;;;;;;;;;;29.20;21.77;100865.91;5047010;28;19943;-95
2022/11/02 13:17:58;;;;;;;;;;;;;;;29.15;22.52;100875.06;5025734;28;19955;-95
2022/11/02 13:20:46;;;;;;;;;;;;;;;28.93;21.96;100868.97;5040387;28;20031;-96
2022/11/02 13:23:31;;;;;;;;;;;;;;;28.98;21.95;100868.94;5059246;28;19988;-95
2022/11/02 13:26:20;;;;;;;;;;;;;;;28.79;22.47;100877.00;5055841;28;19937;-95
2022/11/02 13:28:53;;;;;;;;;;;;;;;28.36;22.30;100868.94;5026391;28;20344;-90
2022/11/02 13:31:43;;;;;;;;;;;;;;;28.21;22.37;100871.66;5047828;23;19955;-94
2022/11/02 13:34:31;;;;;;;;;;;;;;;28.10;24.03;100875.53;4992999;28;19969;-96
2022/11/02 13:39:51;;;;;;;;;;;;;;;26.53;33.85;100880.63;5017058;23;19935;-94
2022/11/02 13:42:40;;;;;;;;;;;;;;;26.09;35.25;100878.00;4950416;28;20032;-92
2022/11/02 13:45:11;;;;;;;;;;;;;;;25.82;36.29;100887.00;4973440;28;19924;-93
2022/11/02 13:48:00;;;;;;;;;;;;;;;25.23;39.92;100884.88;4985435;28;19922;-92
2022/11/02 13:50:25;;;;;;;;;;;;;;;24.76;41.68;100884.38;4956570;28;19961;-87
2022/11/02 13:52:54;;;;;;;;;;;;;;;24.53;42.31;100891.69;4974664;28;19976;-89
2022/11/02 13:55:20;;;;;;;;;;;;;;;24.61;42.27;100885.81;4988094;28;19925;-90
2022/11/02 13:57:48;;;;;;;;;;;;;;;24.53;42.56;100894.44;4963643;28;20395;-91
2022/11/02 14:00:24;;;;;;;;;;;;;;;24.18;42.48;100895.41;4953677;28;20279;-90
2022/11/02 14:02:56;;;;;;;;;;;;;;;24.32;42.35;100892.38;4998905;28;19921;-93
2022/11/02 14:05:31;;;;;;;;;;;;;;;24.28;42.23;100896.69;4994638;28;20017;-93
2022/11/02 14:08:19;;;;;;;;;;;;;;;23.92;43.41;100898.75;4978177;28;19922;-87
2022/11/02 14:10:45;;;;;;;;;;;;;;;23.94;43.69;100893.88;4987691;28;19922;-89
2022/11/02 14:13:11;;;;;;;;;;;;;;;23.88;43.73;100889.34;4977446;28;20401;-84
2022/11/02 14:15:37;;;;;;;;;;;;;;;23.86;43.38;100891.47;4982105;28;20448;-84
2022/11/02 14:18:03;;;;;;;;;;;;;;;23.74;44.33;100897.88;4968982;28;20012;-84
2022/11/02 14:20:34;;;;;;;;;;;;;;;23.66;44.65;100892.72;4979662;28;20331;-85
2022/11/02 14:23:13;;;;;;;;;;;;;;;23.38;45.79;100890.72;4982785;28;19928;-82
2022/11/02 14:25:59;;;;;;;;;;;;;;;22.93;47.10;100892.16;4986564;28;20021;-82
2022/11/02 14:28:40;;;;;;;;;;;;;;;22.97;47.39;100901.56;4993072;28;20322;-84
2022/11/02 14:31:05;;;;;;;;;;;;;;;22.96;48.09;100899.88;4958010;28;19929;-83
2022/11/02 14:33:31;;;;;;;;;;;;;;;22.70;49.01;100894.84;4990776;28;19926;-84
2022/11/02 14:35:57;;;;;;;;;;;;;;;22.66;49.13;100899.13;4973097;28;19918;-84
2022/11/02 14:38:27;;;;;;;;;;;;;;;22.45;50.42;100904.09;4973795;28;19926;-84
2022/11/02 14:41:03;;;;;;;;;;;;;;;22.37;50.50;100901.69;4975136;28;20397;-83
2022/11/02 14:43:43;;;;;;;;;;;;;;;22.26;51.42;100903.31;4989178;28;20004;-82
2022/11/02 14:46:27;;;;;;;;;;;;;;;22.00;52.29;100904.47;4993385;28;20001;-83
2022/11/02 14:48:56;;;;;;;;;;;;;;;21.91;52.51;100903.13;4996468;28;20065;-84
2022/11/02 14:51:22;;;;;;;;;;;;;;;21.81;52.89;100903.66;4982954;28;20001;-84
2022/11/02 14:53:48;;;;;;;;;;;;;;;21.58;53.82;100915.28;4991084;28;19964;-82
2022/11/02 14:56:13;;;;;;;;;;;;;;;21.48;54.26;100915.81;4989506;28;19918;-84
2022/11/02 14:58:39;;;;;;;;;;;;;;;21.32;55.42;100913.66;4989651;28;19939;-83
2022/11/02 15:01:05;;;;;;;;;;;;;;;21.16;56.05;100917.78;4978353;28;20342;-84
2022/11/02 15:03:33;;;;;;;;;;;;;;;21.04;56.68;100914.13;4984169;28;19922;-82
2022/11/02 15:06:06;;;;;;;;;;;;;;;20.84;57.62;100920.63;4988790;28;20322;-83
2022/11/02 15:08:36;;;;;;;;;;;;;;;20.60;58.96;100919.53;4978691;28;19921;-83
2022/11/02 15:11:20;;;;;;;;;;;;;;;20.34;59.95;100925.97;5018398;28;19976;-84
2022/11/02 15:13:46;;;;;;;;;;;;;;;20.25;60.13;100924.53;4991015;28;20036;-84
2022/11/02 15:16:11;;;;;;;;;;;;;;;20.18;60.53;100929.19;4983742;28;20126;-83
2022/11/02 15:18:40;;;;;;;;;;;;;;;20.10;61.24;100929.47;5019903;28;19918;-84
2022/11/02 15:21:08;;;;;;;;;;;;;;;20.00;61.37;100930.75;4986943;28;19921;-84
2022/11/02 15:23:37;;;;;;;;;;;;;;;19.87;61.95;100928.06;4985818;28;19921;-83
2022/11/02 15:26:04;;;;;;;;;;;;;;;19.85;61.96;100932.91;4983218;28;19985;-83
2022/11/02 15:28:31;;;;;;;;;;;;;;;19.72;62.75;100943.88;4989220;28;19918;-83
2022/11/02 15:30:58;;;;;;;;;;;;;;;19.68;62.61;100943.47;4985772;28;20016;-84
2022/11/02 15:33:36;;;;;;;;;;;;;;;19.65;62.73;100943.88;4990115;28;20033;-84
2022/11/02 15:36:02;;;;;;;;;;;;;;;19.52;62.92;100946.63;4985000;28;19929;-84
2022/11/02 15:38:27;;;;;;;;;;;;;;;19.41;63.02;100948.13;4981725;28;19972;-83
2022/11/02 15:41:13;;;;;;;;;;;;;;;19.39;63.31;100959.22;4982516;28;19922;-85
2022/11/02 15:43:38;;;;;;;;;;;;;;;19.35;63.49;100966.16;4987585;28;19941;-86
2022/11/02 15:46:22;;;;;;;;;;;;;;;19.29;63.63;100960.69;4982860;28;19922;-85
2022/11/02 15:48:54;;;;;;;;;;;;;;;19.20;63.94;100968.28;4977586;28;19918;-87
2022/11/02 15:51:19;;;;;;;;;;;;;;;19.07;63.78;100971.81;4985164;28;20032;-84
2022/11/02 15:54:20;;;;;;;;;;;;;;;19.01;63.76;100980.00;4990018;28;19957;-87
2022/11/02 15:57:05;;;;;;;;;;;;;;;18.96;63.50;100986.06;4914308;29;19927;-87
2022/11/02 15:59:49;;;;;;;;;;;;;;;18.93;63.24;100990.03;4970508;28;20259;-88
2022/11/02 16:02:14;;;;;;;;;;;;;;;18.81;64.43;100996.31;4980698;28;19937;-90
2022/11/02 16:04:45;;;;;;;;;;;;;;;18.76;64.08;100996.91;4990104;28;19922;-88
2022/11/02 16:07:13;;;;;;;;;;;;;;;18.77;64.18;100999.44;4988946;28;19922;-88
2022/11/02 16:09:39;;;;;;;;;;;;;;;18.75;63.90;101004.25;4991000;28;19921;-87
2022/11/02 16:12:17;;;;;;;;;;;;;;;18.67;64.62;100998.97;4985989;28;19940;-86
2022/11/02 16:14:43;;;;;;;;;;;;;;;18.60;64.76;101008.19;4997583;28;19961;-88
2022/11/02 16:17:25;;;;;;;;;;;;;;;18.55;64.81;101009.63;4986077;28;20014;-88
2022/11/02 16:20:09;;;;;;;;;;;;;;;18.42;65.59;101014.19;4987403;28;19926;-88
2022/11/02 16:22:35;;;;;;;;;;;;;;;18.36;65.84;101024.03;4958797;28;19918;-87
2022/11/02 16:25:00;;;;;;;;;;;;;;;18.31;65.65;101019.19;4977782;28;20376;-87
2022/11/02 16:27:26;;;;;;;;;;;;;;;18.27;65.44;101023.34;4978228;28;20020;-89
2022/11/02 16:29:51;;;;;;;;;;;;;;;18.24;65.37;101023.78;4979070;28;19965;-86
2022/11/02 16:32:17;;;;;;;;;;;;;;;18.18;65.37;101018.28;4986411;28;20007;-87
2022/11/02 16:34:42;;;;;;;;;;;;;;;18.16;64.72;101020.38;4991002;28;19933;-86
2022/11/02 16:37:12;;;;;;;;;;;;;;;18.15;65.50;101035.88;4984712;28;19984;-85
2022/11/02 16:39:40;;;;;;;;;;;;;;;18.05;65.26;101032.66;4993268;28;19972;-87
2022/11/02 16:42:07;;;;;;;;;;;;;;;18.09;65.12;101037.50;4986197;28;19940;-87
2022/11/02 16:44:33;;;;;;;;;;;;;;;18.04;65.59;101033.72;4991716;28;20025;-88
2022/11/02 16:46:59;;;;;;;;;;;;;;;17.90;65.84;101041.78;5027718;28;20086;-88
2022/11/02 16:49:25;;;;;;;;;;;;;;;17.87;65.85;101044.91;4993362;28;19929;-88
2022/11/02 16:51:53;;;;;;;;;;;;;;;17.78;66.30;101051.53;4972845;28;20314;-87
2022/11/02 16:54:24;;;;;;;;;;;;;;;17.78;66.19;101056.97;4992330;28;19942;-86
2022/11/02 16:56:50;;;;;;;;;;;;;;;17.77;66.62;101055.28;4984266;28;19917;-87
2022/11/02 16:59:20;;;;;;;;;;;;;;;17.63;67.16;101050.78;4973673;28;19945;-88
2022/11/02 17:01:48;;;;;;;;;;;;;;;17.54;67.75;101060.97;4982787;28;19948;-86
2022/11/02 17:04:16;;;;;;;;;;;;;;;17.52;68.71;101057.59;4977729;28;20295;-88
2022/11/02 17:06:42;;;;;;;;;;;;;;;17.46;69.99;101056.50;4990263;28;20422;-86
2022/11/02 17:09:18;;;;;;;;;;;;;;;17.53;70.24;101059.28;4990357;28;19965;-89
2022/11/02 17:11:45;;;;;;;;;;;;;;;17.54;69.92;101054.69;4986375;28;20001;-90
2022/11/02 17:14:10;;;;;;;;;;;;;;;17.44;70.39;101055.00;4991110;28;19996;-88
2022/11/02 17:16:36;;;;;;;;;;;;;;;17.37;70.75;101049.56;4969264;28;19961;-87
2022/11/02 17:19:02;;;;;;;;;;;;;;;17.26;68.36;101052.78;5024512;28;19961;-88
2022/11/02 17:21:28;;;;;;;;;;;;;;;17.20;64.55;101046.25;4990573;28;19922;-90
2022/11/02 17:23:55;;;;;;;;;;;;;;;17.23;65.34;101043.16;4992423;28;19918;-89
2022/11/02 17:26:30;;;;;;;;;;;;;;;17.22;63.76;101049.59;4981287;28;20046;-87
2022/11/02 17:28:58;;;;;;;;;;;;;;;17.05;68.61;101050.94;5002188;28;19926;-89
2022/11/02 17:31:34;;;;;;;;;;;;;;;16.96;70.31;101052.09;4987200;28;19941;-91
2022/11/02 17:34:27;;;;;;;;;;;;;;;16.88;71.67;101053.91;4993115;28;19918;-90
2022/11/02 17:36:52;;;;;;;;;;;;;;;16.90;72.17;101055.56;4997705;28;19918;-90
2022/11/02 17:39:22;;;;;;;;;;;;;;;16.99;71.32;101052.53;5076926;23;19999;-95
2022/11/02 17:45:06;;;;;;;;;;;;;;;17.07;69.24;101055.13;5075353;28;19970;-94
2022/11/02 17:47:35;;;;;;;;;;;;;;;17.03;69.63;101053.00;5070558;28;19925;-92
2022/11/02 17:50:01;;;;;;;;;;;;;;;17.08;67.04;101048.66;5048118;28;19956;-89
2022/11/02 17:52:29;;;;;;;;;;;;;;;17.10;64.59;101053.91;5057168;28;19978;-87
2022/11/02 17:54:58;;;;;;;;;;;;;;;16.99;65.00;101066.09;5069066;28;19912;-90
2022/11/02 17:57:23;;;;;;;;;;;;;;;16.99;62.67;101063.38;5072160;28;19912;-90
2022/11/02 17:59:51;;;;;;;;;;;;;;;17.05;62.43;101065.34;5075354;28;19931;-92
2022/11/02 18:02:36;;;;;;;;;;;;;;;17.04;62.36;101068.25;5076697;28;19905;-94
2022/11/02 18:05:27;;;;;;;;;;;;;;;17.09;62.76;101074.78;5058479;28;19988;-86
2022/11/02 18:07:52;;;;;;;;;;;;;;;17.15;62.07;101069.63;5058606;28;19962;-86
2022/11/02 18:10:19;;;;;;;;;;;;;;;17.14;61.83;101076.06;5036900;28;19932;-87
2022/11/02 18:12:45;;;;;;;;;;;;;;;17.07;62.32;101071.44;5029878;28;19917;-86
2022/11/02 18:15:18;;;;;;;;;;;;;;;17.06;62.80;101075.16;5052885;28;20419;-87
2022/11/02 18:17:46;;;;;;;;;;;;;;;17.14;61.79;101076.94;5031937;28;19932;-90
2022/11/02 18:20:12;;;;;;;;;;;;;;;17.17;61.34;101076.53;5048324;28;19928;-88
2022/11/02 18:22:38;;;;;;;;;;;;;;;17.13;61.47;101075.22;5033055;28;19924;-91
2022/11/02 18:25:11;;;;;;;;;;;;;;;17.13;61.61;101079.81;5051137;28;19921;-90
2022/11/02 18:27:36;;;;;;;;;;;;;;;17.15;61.64;101078.59;5043883;28;20007;-89
2022/11/02 18:30:04;;;;;;;;;;;;;;;17.11;61.70;101087.31;5011987;28;20040;-88
2022/11/02 18:32:31;;;;;;;;;;;;;;;17.07;62.06;101087.72;5049697;28;20413;-88
2022/11/02 18:34:56;;;;;;;;;;;;;;;17.06;61.80;101080.59;5033343;28;19920;-88
2022/11/02 18:37:23;;;;;;;;;;;;;;;17.02;61.91;101083.88;5033102;28;19967;-88
2022/11/02 18:39:49;;;;;;;;;;;;;;;17.00;61.77;101089.53;5032364;28;20362;-87
2022/11/02 18:42:16;;;;;;;;;;;;;;;17.00;61.58;101081.38;5053001;28;19932;-82
2022/11/02 18:44:41;;;;;;;;;;;;;;;16.93;62.29;101083.19;5044783;28;19925;-85
2022/11/02 18:47:07;;;;;;;;;;;;;;;16.94;61.96;101095.72;5025684;28;19921;-85
2022/11/02 18:49:34;;;;;;;;;;;;;;;16.91;61.81;101089.84;5052108;28;19998;-87
2022/11/02 18:52:00;;;;;;;;;;;;;;;16.83;62.30;101097.09;5050221;28;19943;-86
2022/11/02 18:54:25;;;;;;;;;;;;;;;16.78;62.44;101102.19;5032039;28;20272;-87
2022/11/02 18:56:53;;;;;;;;;;;;;;;16.78;61.74;101095.94;5032450;28;19920;-86
2022/11/02 18:59:19;;;;;;;;;;;;;;;16.74;61.74;101108.19;5016929;28;19975;-87
2022/11/02 19:01:45;;;;;;;;;;;;;;;16.69;61.00;101103.31;5033775;28;19921;-85
2022/11/02 19:04:11;;;;;;;;;;;;;;;16.72;60.02;101107.56;5035236;28;20446;-88
2022/11/02 19:09:22;;;;;;;;;;;;;;;16.64;59.54;101109.31;5047970;28;19947;-86
2022/11/02 19:11:50;;;;;;;;;;;;;;;16.70;58.08;101112.34;5048058;28;19921;-87
2022/11/02 19:14:16;;;;;;;;;;;;;;;16.66;58.26;101115.41;5050977;28;20322;-85
2022/11/02 19:16:43;;;;;;;;;;;;;;;16.67;57.78;101114.41;5047171;28;19921;-87
2022/11/02 19:19:09;;;;;;;;;;;;;;;16.72;57.54;101121.13;5051338;28;20024;-87
2022/11/02 19:21:35;;;;;;;;;;;;;;;16.65;58.38;101121.88;5030013;28;20011;-85
2022/11/02 19:24:02;;;;;;;;;;;;;;;16.79;56.45;101127.53;5016025;28;20431;-85
2022/11/02 19:26:28;;;;;;;;;;;;;;;16.76;58.11;101123.25;5049419;28;19920;-85
2022/11/02 19:28:53;;;;;;;;;;;;;;;16.84;57.72;101119.63;5035075;28;19932;-85
2022/11/02 19:31:19;;;;;;;;;;;;;;;16.73;58.28;101123.66;5044287;28;19921;-89
2022/11/02 19:33:46;;;;;;;;;;;;;;;16.76;58.50;101128.69;5056045;28;19917;-86
2022/11/02 19:36:11;;;;;;;;;;;;;;;16.75;59.15;101123.47;5046866;28;19981;-86
2022/11/02 19:38:38;;;;;;;;;;;;;;;16.72;59.06;101132.00;5038166;28;19920;-85
2022/11/02 19:44:17;;;;;;;;;;;;;;;16.53;59.07;101136.13;5052958;28;20408;-91
2022/11/02 19:46:43;;;;;;;;;;;;;;;16.50;59.44;101133.78;5026000;28;19951;-89
2022/11/02 19:49:11;;;;;;;;;;;;;;;16.52;59.01;101137.16;5044336;28;19917;-91
2022/11/02 19:51:48;;;;;;;;;;;;;;;16.46;58.68;101136.06;5035476;28;20003;-93
2022/11/02 19:54:16;;;;;;;;;;;;;;;16.40;59.23;101144.94;5053022;28;20459;-92
2022/11/02 19:56:43;;;;;;;;;;;;;;;16.32;59.79;101143.16;5032498;28;19938;-92
2022/11/02 19:59:12;;;;;;;;;;;;;;;16.33;59.71;101144.00;5096724;23;19934;-89
2022/11/02 20:01:38;;;;;;;;;;;;;;;16.17;59.48;101140.44;5047559;28;19921;-89
2022/11/02 20:04:04;;;;;;;;;;;;;;;16.13;59.66;101133.72;5036365;28;19923;-89
2022/11/02 20:06:57;;;;;;;;;;;;;;;16.13;59.32;101128.28;5019599;28;19938;-90
2022/11/02 20:09:23;;;;;;;;;;;;;;;16.12;59.36;101134.72;5027682;28;19995;-88
2022/11/02 20:11:51;;;;;;;;;;;;;;;16.01;59.57;101138.75;5033356;28;19921;-87
2022/11/02 20:14:17;;;;;;;;;;;;;;;15.90;59.79;101133.78;5016247;28;19979;-87